Weather at Kuala Lumpur International Airport

Public forecast

Using degrees Celsius for public forecast. Weather courtesy of forecast.io.

Current aviation weather report (METAR) for Kuala Lumpur International Airport

Retrieved 2020/10/28 01:30 UTC (0 seconds ago):

WMKK 280130Z 36004KT 290V080 7000 FEW017CB 29/26 Q1010 NOSIG

Aviation forecast (TAF) for Kuala Lumpur International Airport

Retrieved 2020-10-28 00:06 UTC (1 hour ago):

TAF TAF WMKK 272300Z 2800/2906 31006KT 9999 FEW017CB BECMG 2802/2804 FEW018